sensor_id;sensor_type;location;lat;lon;timestamp;temperature;humidity
5705;DHT22;2877;48.238;11.160;2023-03-31T00:00:44;6.80;99.90
5705;DHT22;2877;48.238;11.160;2023-03-31T00:03:11;6.90;99.90
5705;DHT22;2877;48.238;11.160;2023-03-31T00:05:37;6.90;99.90
5705;DHT22;2877;48.238;11.160;2023-03-31T00:08:03;7.00;99.90
5705;DHT22;2877;48.238;11.160;2023-03-31T00:10:30;7.00;99.90
5705;DHT22;2877;48.238;11.160;2023-03-31T00:12:58;7.00;99.90
5705;DHT22;2877;48.238;11.160;2023-03-31T00:15:23;7.00;99.90
5705;DHT22;2877;48.238;11.160;2023-03-31T00:17:49;7.00;99.90
5705;DHT22;2877;48.238;11.160;2023-03-31T00:20:14;7.00;99.90
5705;DHT22;2877;48.238;11.160;2023-03-31T00:22:40;7.00;99.90
5705;DHT22;2877;48.238;11.160;2023-03-31T00:25:13;7.10;99.90
5705;DHT22;2877;48.238;11.160;2023-03-31T00:27:42;7.00;99.90
5705;DHT22;2877;48.238;11.160;2023-03-31T00:30:09;7.00;99.90
5705;DHT22;2877;48.238;11.160;2023-03-31T00:32:35;6.90;99.90
5705;DHT22;2877;48.238;11.160;2023-03-31T00:35:01;6.80;99.90
5705;DHT22;2877;48.238;11.160;2023-03-31T00:37:27;6.80;99.90
5705;DHT22;2877;48.238;11.160;2023-03-31T00:39:54;6.80;99.90
5705;DHT22;2877;48.238;11.160;2023-03-31T00:42:20;6.90;99.90
5705;DHT22;2877;48.238;11.160;2023-03-31T00:47:45;7.10;99.90
5705;DHT22;2877;48.238;11.160;2023-03-31T00:50:34;7.20;99.90
5705;DHT22;2877;48.238;11.160;2023-03-31T00:53:07;7.30;99.90
5705;DHT22;2877;48.238;11.160;2023-03-31T00:55:39;7.30;99.90
5705;DHT22;2877;48.238;11.160;2023-03-31T00:58:07;7.40;99.90
5705;DHT22;2877;48.238;11.160;2023-03-31T01:00:33;7.30;99.90
5705;DHT22;2877;48.238;11.160;2023-03-31T01:03:01;7.30;99.90
5705;DHT22;2877;48.238;11.160;2023-03-31T01:06:01;7.30;99.90
5705;DHT22;2877;48.238;11.160;2023-03-31T01:08:28;7.20;99.90
5705;DHT22;2877;48.238;11.160;2023-03-31T01:11:04;7.10;99.90
5705;DHT22;2877;48.238;11.160;2023-03-31T01:13:31;7.10;99.90
5705;DHT22;2877;48.238;11.160;2023-03-31T01:15:58;7.10;99.90
5705;DHT22;2877;48.238;11.160;2023-03-31T01:18:24;7.00;99.90
5705;DHT22;2877;48.238;11.160;2023-03-31T01:31:59;6.90;99.90
5705;DHT22;2877;48.238;11.160;2023-03-31T01:34:47;7.00;99.90
5705;DHT22;2877;48.238;11.160;2023-03-31T01:40:21;7.00;99.90
5705;DHT22;2877;48.238;11.160;2023-03-31T01:43:23;7.10;99.90
5705;DHT22;2877;48.238;11.160;2023-03-31T01:51:15;7.30;99.90
5705;DHT22;2877;48.238;11.160;2023-03-31T01:53:49;7.30;99.90
5705;DHT22;2877;48.238;11.160;2023-03-31T01:56:34;7.40;99.90
5705;DHT22;2877;48.238;11.160;2023-03-31T02:01:48;7.50;99.90
5705;DHT22;2877;48.238;11.160;2023-03-31T02:04:22;7.50;99.90
5705;DHT22;2877;48.238;11.160;2023-03-31T02:06:56;7.50;99.90
5705;DHT22;2877;48.238;11.160;2023-03-31T02:09:27;7.50;99.90
5705;DHT22;2877;48.238;11.160;2023-03-31T02:11:56;7.50;99.90
5705;DHT22;2877;48.238;11.160;2023-03-31T02:14:24;7.50;99.90
5705;DHT22;2877;48.238;11.160;2023-03-31T02:16:56;7.50;99.90
5705;DHT22;2877;48.238;11.160;2023-03-31T02:19:25;7.50;99.90
5705;DHT22;2877;48.238;11.160;2023-03-31T02:21:53;7.50;99.90
5705;DHT22;2877;48.238;11.160;2023-03-31T02:24:21;7.50;99.90
5705;DHT22;2877;48.238;11.160;2023-03-31T02:26:55;7.50;99.90
5705;DHT22;2877;48.238;11.160;2023-03-31T02:29:24;7.60;99.90
5705;DHT22;2877;48.238;11.160;2023-03-31T02:32:07;7.60;99.90
5705;DHT22;2877;48.238;11.160;2023-03-31T02:34:35;7.70;99.90
5705;DHT22;2877;48.238;11.160;2023-03-31T02:37:01;7.70;99.90
5705;DHT22;2877;48.238;11.160;2023-03-31T02:39:32;7.80;99.90
5705;DHT22;2877;48.238;11.160;2023-03-31T02:41:59;7.80;99.90
5705;DHT22;2877;48.238;11.160;2023-03-31T02:44:26;7.90;99.90
5705;DHT22;2877;48.238;11.160;2023-03-31T02:46:52;7.90;99.90
5705;DHT22;2877;48.238;11.160;2023-03-31T02:49:18;8.00;99.90
5705;DHT22;2877;48.238;11.160;2023-03-31T02:52:08;8.30;99.90
5705;DHT22;2877;48.238;11.160;2023-03-31T03:09:12;8.30;99.90
5705;DHT22;2877;48.238;11.160;2023-03-31T03:12:07;8.40;99.90
5705;DHT22;2877;48.238;11.160;2023-03-31T03:17:26;8.40;99.90
5705;DHT22;2877;48.238;11.160;2023-03-31T03:19:54;8.60;99.90
5705;DHT22;2877;48.238;11.160;2023-03-31T03:22:21;8.60;99.90
5705;DHT22;2877;48.238;11.160;2023-03-31T03:24:47;8.50;99.90
5705;DHT22;2877;48.238;11.160;2023-03-31T03:27:13;8.50;99.90
5705;DHT22;2877;48.238;11.160;2023-03-31T03:29:38;8.40;99.90
5705;DHT22;2877;48.238;11.160;2023-03-31T03:32:04;8.30;99.90
5705;DHT22;2877;48.238;11.160;2023-03-31T03:34:30;8.30;99.90
5705;DHT22;2877;48.238;11.160;2023-03-31T03:36:55;8.20;99.90
5705;DHT22;2877;48.238;11.160;2023-03-31T03:39:21;8.20;99.90
5705;DHT22;2877;48.238;11.160;2023-03-31T03:41:46;8.20;99.90
5705;DHT22;2877;48.238;11.160;2023-03-31T03:44:12;8.20;99.90
5705;DHT22;2877;48.238;11.160;2023-03-31T03:46:38;8.20;99.90
5705;DHT22;2877;48.238;11.160;2023-03-31T03:49:03;8.10;99.90
5705;DHT22;2877;48.238;11.160;2023-03-31T03:51:29;8.20;99.90
5705;DHT22;2877;48.238;11.160;2023-03-31T03:53:54;8.10;99.90
5705;DHT22;2877;48.238;11.160;2023-03-31T03:56:20;8.10;99.90
5705;DHT22;2877;48.238;11.160;2023-03-31T03:58:46;8.10;99.90
5705;DHT22;2877;48.238;11.160;2023-03-31T04:01:11;8.10;99.90
5705;DHT22;2877;48.238;11.160;2023-03-31T04:03:37;8.10;99.90
5705;DHT22;2877;48.238;11.160;2023-03-31T04:06:03;8.10;99.90
5705;DHT22;2877;48.238;11.160;2023-03-31T04:08:28;8.00;99.90
5705;DHT22;2877;48.238;11.160;2023-03-31T04:10:54;8.00;99.90
5705;DHT22;2877;48.238;11.160;2023-03-31T04:13:20;8.10;99.90
5705;DHT22;2877;48.238;11.160;2023-03-31T04:15:45;8.00;99.90
5705;DHT22;2877;48.238;11.160;2023-03-31T04:18:11;8.00;99.90
5705;DHT22;2877;48.238;11.160;2023-03-31T04:20:51;8.00;99.90
5705;DHT22;2877;48.238;11.160;2023-03-31T04:23:29;8.00;99.90
5705;DHT22;2877;48.238;11.160;2023-03-31T04:25:56;8.00;99.90
5705;DHT22;2877;48.238;11.160;2023-03-31T04:28:22;8.00;99.90
5705;DHT22;2877;48.238;11.160;2023-03-31T04:30:48;8.00;99.90
5705;DHT22;2877;48.238;11.160;2023-03-31T04:33:13;8.00;99.90
5705;DHT22;2877;48.238;11.160;2023-03-31T04:35:40;8.00;99.90
5705;DHT22;2877;48.238;11.160;2023-03-31T04:38:19;8.00;99.90
5705;DHT22;2877;48.238;11.160;2023-03-31T04:40:50;8.00;99.90
5705;DHT22;2877;48.238;11.160;2023-03-31T04:43:17;7.90;99.90
5705;DHT22;2877;48.238;11.160;2023-03-31T04:45:43;7.90;99.90
5705;DHT22;2877;48.238;11.160;2023-03-31T04:48:09;7.80;99.90
5705;DHT22;2877;48.238;11.160;2023-03-31T04:50:35;7.80;99.90
5705;DHT22;2877;48.238;11.160;2023-03-31T04:53:02;7.80;99.90
5705;DHT22;2877;48.238;11.160;2023-03-31T04:55:28;7.80;99.90
5705;DHT22;2877;48.238;11.160;2023-03-31T04:57:53;7.80;99.90
5705;DHT22;2877;48.238;11.160;2023-03-31T05:00:19;7.90;99.90
5705;DHT22;2877;48.238;11.160;2023-03-31T05:02:45;7.90;99.90
5705;DHT22;2877;48.238;11.160;2023-03-31T05:05:11;7.90;99.90
5705;DHT22;2877;48.238;11.160;2023-03-31T05:07:37;7.90;99.90
5705;DHT22;2877;48.238;11.160;2023-03-31T05:10:04;7.90;99.90
5705;DHT22;2877;48.238;11.160;2023-03-31T05:12:34;7.90;99.90
5705;DHT22;2877;48.238;11.160;2023-03-31T05:15:00;8.00;99.90
5705;DHT22;2877;48.238;11.160;2023-03-31T05:17:26;8.00;99.90
5705;DHT22;2877;48.238;11.160;2023-03-31T05:19:51;8.00;99.90
5705;DHT22;2877;48.238;11.160;2023-03-31T05:22:17;8.00;99.90
5705;DHT22;2877;48.238;11.160;2023-03-31T05:24:45;8.00;99.90
5705;DHT22;2877;48.238;11.160;2023-03-31T05:27:11;8.10;99.90
5705;DHT22;2877;48.238;11.160;2023-03-31T05:29:36;8.20;99.90
5705;DHT22;2877;48.238;11.160;2023-03-31T05:32:02;8.20;99.90
5705;DHT22;2877;48.238;11.160;2023-03-31T05:34:28;8.20;99.90
5705;DHT22;2877;48.238;11.160;2023-03-31T05:36:53;8.10;99.90
5705;DHT22;2877;48.238;11.160;2023-03-31T05:39:19;8.00;99.90
5705;DHT22;2877;48.238;11.160;2023-03-31T05:41:45;8.00;99.90
5705;DHT22;2877;48.238;11.160;2023-03-31T05:44:11;7.90;99.90
5705;DHT22;2877;48.238;11.160;2023-03-31T05:46:37;7.90;99.90
5705;DHT22;2877;48.238;11.160;2023-03-31T05:49:02;7.90;99.90
5705;DHT22;2877;48.238;11.160;2023-03-31T05:51:28;7.90;99.90
5705;DHT22;2877;48.238;11.160;2023-03-31T05:53:53;7.90;99.90
5705;DHT22;2877;48.238;11.160;2023-03-31T05:56:19;8.00;99.90
5705;DHT22;2877;48.238;11.160;2023-03-31T05:58:46;8.10;99.90
5705;DHT22;2877;48.238;11.160;2023-03-31T06:01:14;8.20;99.90
5705;DHT22;2877;48.238;11.160;2023-03-31T06:03:44;8.30;99.90
5705;DHT22;2877;48.238;11.160;2023-03-31T06:06:10;8.30;99.90
5705;DHT22;2877;48.238;11.160;2023-03-31T06:08:39;8.30;99.90
5705;DHT22;2877;48.238;11.160;2023-03-31T06:11:07;8.40;99.90
5705;DHT22;2877;48.238;11.160;2023-03-31T06:13:33;8.40;99.90
5705;DHT22;2877;48.238;11.160;2023-03-31T06:15:59;8.50;99.90
5705;DHT22;2877;48.238;11.160;2023-03-31T06:18:29;8.50;99.90
5705;DHT22;2877;48.238;11.160;2023-03-31T06:20:56;8.50;99.90
5705;DHT22;2877;48.238;11.160;2023-03-31T06:23:22;8.60;99.90
5705;DHT22;2877;48.238;11.160;2023-03-31T06:25:48;8.60;99.90
5705;DHT22;2877;48.238;11.160;2023-03-31T06:28:14;8.70;99.90
5705;DHT22;2877;48.238;11.160;2023-03-31T06:30:40;8.70;99.90
5705;DHT22;2877;48.238;11.160;2023-03-31T06:33:05;8.70;99.90
5705;DHT22;2877;48.238;11.160;2023-03-31T06:35:31;8.70;99.90
5705;DHT22;2877;48.238;11.160;2023-03-31T06:37:57;8.80;99.90
5705;DHT22;2877;48.238;11.160;2023-03-31T06:40:22;8.70;99.90
5705;DHT22;2877;48.238;11.160;2023-03-31T06:42:48;8.70;99.90
5705;DHT22;2877;48.238;11.160;2023-03-31T06:45:14;8.70;99.90
5705;DHT22;2877;48.238;11.160;2023-03-31T06:47:39;8.60;99.90
5705;DHT22;2877;48.238;11.160;2023-03-31T06:50:07;8.60;99.90
5705;DHT22;2877;48.238;11.160;2023-03-31T06:52:34;8.50;99.90
5705;DHT22;2877;48.238;11.160;2023-03-31T06:55:00;8.50;99.90
5705;DHT22;2877;48.238;11.160;2023-03-31T06:57:29;8.40;99.90
5705;DHT22;2877;48.238;11.160;2023-03-31T06:59:57;8.40;99.90
5705;DHT22;2877;48.238;11.160;2023-03-31T07:02:23;8.50;99.90
5705;DHT22;2877;48.238;11.160;2023-03-31T07:04:48;8.50;99.90
5705;DHT22;2877;48.238;11.160;2023-03-31T07:07:14;8.50;99.90
5705;DHT22;2877;48.238;11.160;2023-03-31T07:09:39;8.50;99.90
5705;DHT22;2877;48.238;11.160;2023-03-31T07:12:05;8.50;99.90
5705;DHT22;2877;48.238;11.160;2023-03-31T07:14:31;8.50;99.90
5705;DHT22;2877;48.238;11.160;2023-03-31T07:16:57;8.50;99.90
5705;DHT22;2877;48.238;11.160;2023-03-31T07:19:23;8.50;99.90
5705;DHT22;2877;48.238;11.160;2023-03-31T07:21:48;8.50;99.90
5705;DHT22;2877;48.238;11.160;2023-03-31T07:24:14;8.50;99.90
5705;DHT22;2877;48.238;11.160;2023-03-31T07:26:40;8.50;99.90
5705;DHT22;2877;48.238;11.160;2023-03-31T07:29:06;8.60;99.90
5705;DHT22;2877;48.238;11.160;2023-03-31T07:31:31;8.60;99.90
5705;DHT22;2877;48.238;11.160;2023-03-31T07:33:57;8.70;99.90
5705;DHT22;2877;48.238;11.160;2023-03-31T07:36:23;8.90;99.90
5705;DHT22;2877;48.238;11.160;2023-03-31T07:38:48;9.10;99.90
5705;DHT22;2877;48.238;11.160;2023-03-31T07:41:19;9.20;99.90
5705;DHT22;2877;48.238;11.160;2023-03-31T07:43:46;9.40;99.90
5705;DHT22;2877;48.238;11.160;2023-03-31T07:46:20;9.60;99.90
5705;DHT22;2877;48.238;11.160;2023-03-31T07:48:47;9.60;99.90
5705;DHT22;2877;48.238;11.160;2023-03-31T07:51:14;9.60;99.90
5705;DHT22;2877;48.238;11.160;2023-03-31T07:53:41;9.60;99.90
5705;DHT22;2877;48.238;11.160;2023-03-31T07:56:07;9.70;99.90
5705;DHT22;2877;48.238;11.160;2023-03-31T07:58:33;9.80;99.90
5705;DHT22;2877;48.238;11.160;2023-03-31T08:00:59;9.90;99.90
5705;DHT22;2877;48.238;11.160;2023-03-31T08:03:25;10.10;99.90
5705;DHT22;2877;48.238;11.160;2023-03-31T08:05:51;10.30;99.90
5705;DHT22;2877;48.238;11.160;2023-03-31T08:08:17;10.40;99.90
5705;DHT22;2877;48.238;11.160;2023-03-31T08:10:42;10.40;99.90
5705;DHT22;2877;48.238;11.160;2023-03-31T08:13:08;10.40;99.90
5705;DHT22;2877;48.238;11.160;2023-03-31T08:15:33;10.40;99.90
5705;DHT22;2877;48.238;11.160;2023-03-31T08:17:59;10.40;99.90
5705;DHT22;2877;48.238;11.160;2023-03-31T08:20:25;10.50;99.90
5705;DHT22;2877;48.238;11.160;2023-03-31T08:22:50;10.40;99.90
5705;DHT22;2877;48.238;11.160;2023-03-31T08:25:16;10.50;99.90
5705;DHT22;2877;48.238;11.160;2023-03-31T08:27:42;10.50;99.90
5705;DHT22;2877;48.238;11.160;2023-03-31T08:30:10;10.50;99.90
5705;DHT22;2877;48.238;11.160;2023-03-31T08:32:36;10.40;99.90
5705;DHT22;2877;48.238;11.160;2023-03-31T08:35:02;10.50;99.90
5705;DHT22;2877;48.238;11.160;2023-03-31T08:37:27;10.70;99.90
5705;DHT22;2877;48.238;11.160;2023-03-31T08:39:54;10.80;99.90
5705;DHT22;2877;48.238;11.160;2023-03-31T08:42:48;10.80;99.90
5705;DHT22;2877;48.238;11.160;2023-03-31T08:47:45;10.60;99.90
5705;DHT22;2877;48.238;11.160;2023-03-31T08:50:16;10.60;99.90
5705;DHT22;2877;48.238;11.160;2023-03-31T08:52:47;10.80;99.90
5705;DHT22;2877;48.238;11.160;2023-03-31T08:55:26;10.90;99.90
5705;DHT22;2877;48.238;11.160;2023-03-31T09:00:41;10.90;99.90
5705;DHT22;2877;48.238;11.160;2023-03-31T09:03:28;10.90;99.90
5705;DHT22;2877;48.238;11.160;2023-03-31T09:06:06;10.90;99.90
5705;DHT22;2877;48.238;11.160;2023-03-31T09:08:38;10.90;99.90
5705;DHT22;2877;48.238;11.160;2023-03-31T09:11:27;10.90;99.90
5705;DHT22;2877;48.238;11.160;2023-03-31T09:14:20;10.90;99.90
5705;DHT22;2877;48.238;11.160;2023-03-31T09:17:22;10.90;99.90
5705;DHT22;2877;48.238;11.160;2023-03-31T09:19:56;11.20;99.90
5705;DHT22;2877;48.238;11.160;2023-03-31T09:22:32;11.60;99.90
5705;DHT22;2877;48.238;11.160;2023-03-31T09:27:30;12.10;99.90
5705;DHT22;2877;48.238;11.160;2023-03-31T09:30:19;12.20;99.90
5705;DHT22;2877;48.238;11.160;2023-03-31T09:32:49;12.00;99.90
5705;DHT22;2877;48.238;11.160;2023-03-31T09:35:22;12.00;99.90
5705;DHT22;2877;48.238;11.160;2023-03-31T09:37:50;12.00;99.90
5705;DHT22;2877;48.238;11.160;2023-03-31T09:40:24;12.20;99.90
5705;DHT22;2877;48.238;11.160;2023-03-31T09:42:57;12.10;99.90
5705;DHT22;2877;48.238;11.160;2023-03-31T09:45:23;12.20;99.90
5705;DHT22;2877;48.238;11.160;2023-03-31T09:47:51;12.20;99.90
5705;DHT22;2877;48.238;11.160;2023-03-31T09:50:18;12.30;99.90
5705;DHT22;2877;48.238;11.160;2023-03-31T09:52:58;12.30;99.90
5705;DHT22;2877;48.238;11.160;2023-03-31T09:55:39;12.40;99.90
5705;DHT22;2877;48.238;11.160;2023-03-31T09:58:13;12.40;99.90
5705;DHT22;2877;48.238;11.160;2023-03-31T10:00:43;12.50;99.90
5705;DHT22;2877;48.238;11.160;2023-03-31T10:03:21;12.60;99.90
5705;DHT22;2877;48.238;11.160;2023-03-31T10:05:53;12.60;99.90
5705;DHT22;2877;48.238;11.160;2023-03-31T10:08:23;12.70;99.90
5705;DHT22;2877;48.238;11.160;2023-03-31T10:10:57;12.80;99.90
5705;DHT22;2877;48.238;11.160;2023-03-31T10:14:02;12.90;99.90
5705;DHT22;2877;48.238;11.160;2023-03-31T10:16:34;13.10;99.90
5705;DHT22;2877;48.238;11.160;2023-03-31T10:19:21;13.20;99.90
5705;DHT22;2877;48.238;11.160;2023-03-31T10:21:58;13.30;99.90
5705;DHT22;2877;48.238;11.160;2023-03-31T10:24:25;13.30;99.90
5705;DHT22;2877;48.238;11.160;2023-03-31T10:27:00;13.50;99.90
5705;DHT22;2877;48.238;11.160;2023-03-31T10:29:30;13.60;99.90
5705;DHT22;2877;48.238;11.160;2023-03-31T10:32:10;13.70;99.90
5705;DHT22;2877;48.238;11.160;2023-03-31T10:34:41;13.90;99.90
5705;DHT22;2877;48.238;11.160;2023-03-31T10:37:09;13.80;99.90
5705;DHT22;2877;48.238;11.160;2023-03-31T10:39:35;13.80;99.90
5705;DHT22;2877;48.238;11.160;2023-03-31T10:42:03;13.90;99.90
5705;DHT22;2877;48.238;11.160;2023-03-31T10:44:37;14.00;99.90
5705;DHT22;2877;48.238;11.160;2023-03-31T10:49:39;13.90;99.90
5705;DHT22;2877;48.238;11.160;2023-03-31T10:52:16;13.80;99.90
5705;DHT22;2877;48.238;11.160;2023-03-31T10:54:46;13.80;99.90
5705;DHT22;2877;48.238;11.160;2023-03-31T10:57:13;13.90;99.90
5705;DHT22;2877;48.238;11.160;2023-03-31T10:59:51;13.80;99.90
5705;DHT22;2877;48.238;11.160;2023-03-31T11:08:35;13.40;99.90
5705;DHT22;2877;48.238;11.160;2023-03-31T11:14:00;12.80;99.90
5705;DHT22;2877;48.238;11.160;2023-03-31T11:16:57;12.30;99.90
5705;DHT22;2877;48.238;11.160;2023-03-31T11:22:33;11.60;99.90
5705;DHT22;2877;48.238;11.160;2023-03-31T11:25:30;11.90;99.90
5705;DHT22;2877;48.238;11.160;2023-03-31T11:30:35;12.50;99.90
5705;DHT22;2877;48.238;11.160;2023-03-31T11:36:12;12.80;99.90
5705;DHT22;2877;48.238;11.160;2023-03-31T11:41:40;12.90;99.90
5705;DHT22;2877;48.238;11.160;2023-03-31T11:44:12;12.90;99.90
5705;DHT22;2877;48.238;11.160;2023-03-31T11:46:47;12.80;99.90
5705;DHT22;2877;48.238;11.160;2023-03-31T11:49:36;13.10;99.90
5705;DHT22;2877;48.238;11.160;2023-03-31T11:52:13;13.70;99.90
5705;DHT22;2877;48.238;11.160;2023-03-31T11:55:03;13.90;98.70
5705;DHT22;2877;48.238;11.160;2023-03-31T11:57:35;13.90;97.80
5705;DHT22;2877;48.238;11.160;2023-03-31T12:00:09;13.80;97.60
5705;DHT22;2877;48.238;11.160;2023-03-31T12:03:03;13.80;99.70
5705;DHT22;2877;48.238;11.160;2023-03-31T12:05:33;13.60;98.40
5705;DHT22;2877;48.238;11.160;2023-03-31T12:08:05;13.70;98.70
5705;DHT22;2877;48.238;11.160;2023-03-31T12:10:35;13.90;99.00
5705;DHT22;2877;48.238;11.160;2023-03-31T12:13:22;14.30;97.80
5705;DHT22;2877;48.238;11.160;2023-03-31T12:16:00;14.90;98.10
5705;DHT22;2877;48.238;11.160;2023-03-31T12:21:17;14.60;97.00
5705;DHT22;2877;48.238;11.160;2023-03-31T12:23:44;14.40;97.90
5705;DHT22;2877;48.238;11.160;2023-03-31T12:26:29;14.20;97.60
5705;DHT22;2877;48.238;11.160;2023-03-31T12:28:59;14.00;98.50
5705;DHT22;2877;48.238;11.160;2023-03-31T12:31:29;14.10;99.60
5705;DHT22;2877;48.238;11.160;2023-03-31T12:34:07;14.10;99.20
5705;DHT22;2877;48.238;11.160;2023-03-31T12:39:43;14.30;98.60
5705;DHT22;2877;48.238;11.160;2023-03-31T12:42:34;14.30;97.80
5705;DHT22;2877;48.238;11.160;2023-03-31T12:45:26;14.10;98.60
5705;DHT22;2877;48.238;11.160;2023-03-31T12:48:14;14.10;99.90
5705;DHT22;2877;48.238;11.160;2023-03-31T12:51:01;13.80;99.60
5705;DHT22;2877;48.238;11.160;2023-03-31T12:56:07;13.50;99.90
5705;DHT22;2877;48.238;11.160;2023-03-31T12:58:41;13.30;99.90
5705;DHT22;2877;48.238;11.160;2023-03-31T13:11:43;12.80;99.30
5705;DHT22;2877;48.238;11.160;2023-03-31T13:14:13;12.70;96.20
5705;DHT22;2877;48.238;11.160;2023-03-31T13:16:41;12.40;98.40
5705;DHT22;2877;48.238;11.160;2023-03-31T13:19:09;12.30;97.00
5705;DHT22;2877;48.238;11.160;2023-03-31T13:21:55;13.20;97.40
5705;DHT22;2877;48.238;11.160;2023-03-31T13:24:22;14.40;96.30
5705;DHT22;2877;48.238;11.160;2023-03-31T13:26:48;14.80;93.30
5705;DHT22;2877;48.238;11.160;2023-03-31T13:34:26;11.70;99.90
5705;DHT22;2877;48.238;11.160;2023-03-31T13:45:47;10.50;99.90
5705;DHT22;2877;48.238;11.160;2023-03-31T14:01:50;12.50;99.90
5705;DHT22;2877;48.238;11.160;2023-03-31T14:07:17;12.50;99.90
5705;DHT22;2877;48.238;11.160;2023-03-31T14:09:45;12.20;99.90
5705;DHT22;2877;48.238;11.160;2023-03-31T14:14:52;11.70;99.90
5705;DHT22;2877;48.238;11.160;2023-03-31T14:17:19;11.60;99.90
5705;DHT22;2877;48.238;11.160;2023-03-31T14:20:04;11.60;99.90
5705;DHT22;2877;48.238;11.160;2023-03-31T14:25:12;11.50;99.90
5705;DHT22;2877;48.238;11.160;2023-03-31T14:33:47;11.30;99.90
5705;DHT22;2877;48.238;11.160;2023-03-31T14:36:28;10.80;99.90
5705;DHT22;2877;48.238;11.160;2023-03-31T14:39:03;9.90;99.90
5705;DHT22;2877;48.238;11.160;2023-03-31T14:41:31;9.50;99.90
5705;DHT22;2877;48.238;11.160;2023-03-31T14:43:59;9.30;99.90
5705;DHT22;2877;48.238;11.160;2023-03-31T14:46:28;9.30;99.90
5705;DHT22;2877;48.238;11.160;2023-03-31T14:48:56;9.50;99.90
5705;DHT22;2877;48.238;11.160;2023-03-31T14:51:28;9.70;99.90
5705;DHT22;2877;48.238;11.160;2023-03-31T14:53:57;10.10;99.90
5705;DHT22;2877;48.238;11.160;2023-03-31T14:56:32;10.50;99.90
5705;DHT22;2877;48.238;11.160;2023-03-31T14:59:01;10.90;99.90
5705;DHT22;2877;48.238;11.160;2023-03-31T15:01:29;11.00;99.90
5705;DHT22;2877;48.238;11.160;2023-03-31T15:04:07;11.00;99.90
5705;DHT22;2877;48.238;11.160;2023-03-31T15:06:33;11.00;99.90
5705;DHT22;2877;48.238;11.160;2023-03-31T15:09:02;10.90;99.90
5705;DHT22;2877;48.238;11.160;2023-03-31T15:11:29;10.90;99.90
5705;DHT22;2877;48.238;11.160;2023-03-31T15:13:55;11.00;99.90
5705;DHT22;2877;48.238;11.160;2023-03-31T15:16:43;11.10;99.90
5705;DHT22;2877;48.238;11.160;2023-03-31T15:19:21;11.20;99.90
5705;DHT22;2877;48.238;11.160;2023-03-31T15:21:58;11.20;99.90
5705;DHT22;2877;48.238;11.160;2023-03-31T15:24:27;11.30;99.90
5705;DHT22;2877;48.238;11.160;2023-03-31T15:27:05;11.40;99.90
5705;DHT22;2877;48.238;11.160;2023-03-31T15:29:53;11.40;99.90
5705;DHT22;2877;48.238;11.160;2023-03-31T15:32:29;11.50;99.90
5705;DHT22;2877;48.238;11.160;2023-03-31T15:34:55;11.40;99.90
5705;DHT22;2877;48.238;11.160;2023-03-31T15:37:25;11.30;99.90
5705;DHT22;2877;48.238;11.160;2023-03-31T15:39:57;11.30;99.90
5705;DHT22;2877;48.238;11.160;2023-03-31T15:42:25;11.30;99.90
5705;DHT22;2877;48.238;11.160;2023-03-31T15:47:55;11.00;99.90
5705;DHT22;2877;48.238;11.160;2023-03-31T15:50:22;10.80;99.90
5705;DHT22;2877;48.238;11.160;2023-03-31T15:52:51;10.80;99.90
5705;DHT22;2877;48.238;11.160;2023-03-31T15:55:44;10.70;99.90
5705;DHT22;2877;48.238;11.160;2023-03-31T15:58:14;10.70;99.90
5705;DHT22;2877;48.238;11.160;2023-03-31T16:00:45;10.70;99.90
5705;DHT22;2877;48.238;11.160;2023-03-31T16:03:23;10.70;99.90
5705;DHT22;2877;48.238;11.160;2023-03-31T16:05:54;10.80;99.90
5705;DHT22;2877;48.238;11.160;2023-03-31T16:08:28;10.90;99.90
5705;DHT22;2877;48.238;11.160;2023-03-31T16:11:02;11.00;99.90
5705;DHT22;2877;48.238;11.160;2023-03-31T16:13:30;10.90;99.90
5705;DHT22;2877;48.238;11.160;2023-03-31T16:15:56;10.80;99.90
5705;DHT22;2877;48.238;11.160;2023-03-31T16:18:24;10.60;99.90
5705;DHT22;2877;48.238;11.160;2023-03-31T16:20:56;10.50;99.90
5705;DHT22;2877;48.238;11.160;2023-03-31T16:23:31;10.50;99.90
5705;DHT22;2877;48.238;11.160;2023-03-31T16:25:58;10.50;99.90
5705;DHT22;2877;48.238;11.160;2023-03-31T16:28:34;10.50;99.90
5705;DHT22;2877;48.238;11.160;2023-03-31T16:31:00;10.40;99.90
5705;DHT22;2877;48.238;11.160;2023-03-31T16:33:28;10.10;99.90
5705;DHT22;2877;48.238;11.160;2023-03-31T16:35:55;9.70;99.90
5705;DHT22;2877;48.238;11.160;2023-03-31T16:38:24;9.30;99.90
5705;DHT22;2877;48.238;11.160;2023-03-31T16:40:51;8.90;99.90
5705;DHT22;2877;48.238;11.160;2023-03-31T16:43:20;8.50;99.90
5705;DHT22;2877;48.238;11.160;2023-03-31T16:45:52;8.20;99.90
5705;DHT22;2877;48.238;11.160;2023-03-31T16:48:19;7.90;99.90
5705;DHT22;2877;48.238;11.160;2023-03-31T16:50:47;7.60;99.90
5705;DHT22;2877;48.238;11.160;2023-03-31T16:53:15;7.50;99.90
5705;DHT22;2877;48.238;11.160;2023-03-31T16:55:41;7.50;99.90
5705;DHT22;2877;48.238;11.160;2023-03-31T16:58:07;7.50;99.90
5705;DHT22;2877;48.238;11.160;2023-03-31T17:00:34;7.50;99.90
5705;DHT22;2877;48.238;11.160;2023-03-31T17:03:01;7.50;99.90
5705;DHT22;2877;48.238;11.160;2023-03-31T17:05:27;7.60;99.90
5705;DHT22;2877;48.238;11.160;2023-03-31T17:07:56;7.60;99.90
5705;DHT22;2877;48.238;11.160;2023-03-31T17:10:22;7.60;99.90
5705;DHT22;2877;48.238;11.160;2023-03-31T17:12:47;7.60;99.90
5705;DHT22;2877;48.238;11.160;2023-03-31T17:15:13;7.50;99.90
5705;DHT22;2877;48.238;11.160;2023-03-31T17:17:39;7.40;99.90
5705;DHT22;2877;48.238;11.160;2023-03-31T17:20:05;7.40;99.90
5705;DHT22;2877;48.238;11.160;2023-03-31T17:22:32;7.30;99.90
5705;DHT22;2877;48.238;11.160;2023-03-31T17:24:58;7.30;99.90
5705;DHT22;2877;48.238;11.160;2023-03-31T17:27:24;7.20;99.90
5705;DHT22;2877;48.238;11.160;2023-03-31T17:29:51;7.30;99.90
5705;DHT22;2877;48.238;11.160;2023-03-31T17:32:17;7.30;99.90
5705;DHT22;2877;48.238;11.160;2023-03-31T17:34:43;7.30;99.90
5705;DHT22;2877;48.238;11.160;2023-03-31T17:37:09;7.30;99.90
5705;DHT22;2877;48.238;11.160;2023-03-31T17:39:34;7.20;99.90
5705;DHT22;2877;48.238;11.160;2023-03-31T17:42:00;7.20;99.90
5705;DHT22;2877;48.238;11.160;2023-03-31T17:44:28;7.10;99.90
5705;DHT22;2877;48.238;11.160;2023-03-31T17:46:54;7.10;99.90
5705;DHT22;2877;48.238;11.160;2023-03-31T17:49:19;7.10;99.90
5705;DHT22;2877;48.238;11.160;2023-03-31T17:51:45;7.10;99.90
5705;DHT22;2877;48.238;11.160;2023-03-31T17:54:11;7.20;99.90
5705;DHT22;2877;48.238;11.160;2023-03-31T17:56:36;7.20;99.90
5705;DHT22;2877;48.238;11.160;2023-03-31T17:59:02;7.20;99.90
5705;DHT22;2877;48.238;11.160;2023-03-31T18:01:28;7.20;99.90
5705;DHT22;2877;48.238;11.160;2023-03-31T18:03:55;7.20;99.90
5705;DHT22;2877;48.238;11.160;2023-03-31T18:06:21;7.20;99.90
5705;DHT22;2877;48.238;11.160;2023-03-31T18:08:46;7.20;99.90
5705;DHT22;2877;48.238;11.160;2023-03-31T18:11:12;7.20;99.90
5705;DHT22;2877;48.238;11.160;2023-03-31T18:13:38;7.20;99.90
5705;DHT22;2877;48.238;11.160;2023-03-31T18:16:06;7.10;99.90
5705;DHT22;2877;48.238;11.160;2023-03-31T18:18:34;7.10;99.90
5705;DHT22;2877;48.238;11.160;2023-03-31T18:21:07;7.10;99.90
5705;DHT22;2877;48.238;11.160;2023-03-31T18:23:33;7.10;99.90
5705;DHT22;2877;48.238;11.160;2023-03-31T18:25:59;7.10;99.90
5705;DHT22;2877;48.238;11.160;2023-03-31T18:28:25;7.00;99.90
5705;DHT22;2877;48.238;11.160;2023-03-31T18:30:51;7.00;99.90